sensor_id;sensor_type;location;lat;lon;timestamp;pressure;altitude;pressure_sealevel;temperature;humidity
22651;BME280;11492;42.646;23.400;2023-05-11T00:00:07;95281.22;;;11.25;65.98
22651;BME280;11492;42.646;23.400;2023-05-11T00:02:34;95286.09;;;11.20;67.39
22651;BME280;11492;42.646;23.400;2023-05-11T00:05:00;95294.47;;;11.22;66.31
22651;BME280;11492;42.646;23.400;2023-05-11T00:07:25;95293.22;;;11.18;66.86
22651;BME280;11492;42.646;23.400;2023-05-11T00:09:50;95287.41;;;11.16;66.76
22651;BME280;11492;42.646;23.400;2023-05-11T00:12:16;95283.50;;;11.20;66.35
22651;BME280;11492;42.646;23.400;2023-05-11T00:14:41;95285.91;;;11.21;66.40
22651;BME280;11492;42.646;23.400;2023-05-11T00:17:07;95293.50;;;11.23;66.34
22651;BME280;11492;42.646;23.400;2023-05-11T00:19:32;95282.34;;;11.22;65.93
22651;BME280;11492;42.646;23.400;2023-05-11T00:21:58;95298.31;;;11.26;65.66
22651;BME280;11492;42.646;23.400;2023-05-11T00:24:24;95295.44;;;11.21;65.49
22651;BME280;11492;42.646;23.400;2023-05-11T00:26:51;95287.09;;;11.19;66.76
22651;BME280;11492;42.646;23.400;2023-05-11T00:29:16;95294.47;;;11.22;65.68
22651;BME280;11492;42.646;23.400;2023-05-11T00:31:42;95299.63;;;11.22;65.30
22651;BME280;11492;42.646;23.400;2023-05-11T00:34:12;95289.19;;;11.16;66.43
22651;BME280;11492;42.646;23.400;2023-05-11T00:36:38;95295.81;;;11.18;65.54
22651;BME280;11492;42.646;23.400;2023-05-11T00:39:04;95299.53;;;11.16;66.42
22651;BME280;11492;42.646;23.400;2023-05-11T00:41:29;95297.66;;;11.10;65.41
22651;BME280;11492;42.646;23.400;2023-05-11T00:43:55;95293.81;;;11.06;65.69
22651;BME280;11492;42.646;23.400;2023-05-11T00:46:20;95302.81;;;11.10;65.55
22651;BME280;11492;42.646;23.400;2023-05-11T00:48:46;95299.25;;;11.11;66.03
22651;BME280;11492;42.646;23.400;2023-05-11T00:51:12;95298.19;;;11.05;65.72
22651;BME280;11492;42.646;23.400;2023-05-11T00:53:38;95307.53;;;11.06;65.01
22651;BME280;11492;42.646;23.400;2023-05-11T00:56:03;95307.09;;;11.03;65.26
22651;BME280;11492;42.646;23.400;2023-05-11T00:58:30;95300.00;;;10.97;65.21
22651;BME280;11492;42.646;23.400;2023-05-11T01:00:55;95306.34;;;10.95;65.00
22651;BME280;11492;42.646;23.400;2023-05-11T01:03:21;95301.59;;;10.84;65.58
22651;BME280;11492;42.646;23.400;2023-05-11T01:11:42;95300.91;;;10.68;66.22
22651;BME280;11492;42.646;23.400;2023-05-11T01:14:26;95301.09;;;10.66;65.67
22651;BME280;11492;42.646;23.400;2023-05-11T01:17:02;95305.28;;;10.67;65.66
22651;BME280;11492;42.646;23.400;2023-05-11T01:19:43;95306.28;;;10.58;66.50
22651;BME280;11492;42.646;23.400;2023-05-11T01:22:33;95301.94;;;10.59;66.87
22651;BME280;11492;42.646;23.400;2023-05-11T01:30:56;95302.91;;;10.58;65.47
22651;BME280;11492;42.646;23.400;2023-05-11T01:33:29;95310.19;;;10.54;66.42
22651;BME280;11492;42.646;23.400;2023-05-11T01:36:01;95304.72;;;10.49;66.15
22651;BME280;11492;42.646;23.400;2023-05-11T01:38:32;95298.94;;;10.47;66.06
22651;BME280;11492;42.646;23.400;2023-05-11T01:41:00;95308.91;;;10.50;67.28
22651;BME280;11492;42.646;23.400;2023-05-11T01:43:29;95303.41;;;10.53;66.79
22651;BME280;11492;42.646;23.400;2023-05-11T01:45:59;95302.66;;;10.45;67.17
22651;BME280;11492;42.646;23.400;2023-05-11T01:48:27;95297.66;;;10.44;67.29
22651;BME280;11492;42.646;23.400;2023-05-11T01:50:59;95303.00;;;10.42;66.38
22651;BME280;11492;42.646;23.400;2023-05-11T01:53:25;95309.59;;;10.45;67.39
22651;BME280;11492;42.646;23.400;2023-05-11T01:55:53;95296.97;;;10.49;67.35
22651;BME280;11492;42.646;23.400;2023-05-11T01:58:20;95303.88;;;10.57;66.52
22651;BME280;11492;42.646;23.400;2023-05-11T02:00:47;95297.63;;;10.51;66.20
22651;BME280;11492;42.646;23.400;2023-05-11T02:03:14;95304.69;;;10.57;66.07
22651;BME280;11492;42.646;23.400;2023-05-11T02:05:41;95304.34;;;10.60;64.88
22651;BME280;11492;42.646;23.400;2023-05-11T02:08:09;95298.22;;;10.61;65.02
22651;BME280;11492;42.646;23.400;2023-05-11T02:10:37;95305.13;;;10.61;64.49
22651;BME280;11492;42.646;23.400;2023-05-11T02:13:04;95303.72;;;10.58;64.57
22651;BME280;11492;42.646;23.400;2023-05-11T02:15:31;95306.91;;;10.60;65.11
22651;BME280;11492;42.646;23.400;2023-05-11T02:17:58;95298.53;;;10.58;65.31
22651;BME280;11492;42.646;23.400;2023-05-11T02:20:25;95302.72;;;10.59;65.12
22651;BME280;11492;42.646;23.400;2023-05-11T02:22:52;95301.34;;;10.49;65.07
22651;BME280;11492;42.646;23.400;2023-05-11T02:25:18;95293.41;;;10.50;64.66
22651;BME280;11492;42.646;23.400;2023-05-11T02:27:44;95290.59;;;10.46;64.70
22651;BME280;11492;42.646;23.400;2023-05-11T02:30:10;95289.34;;;10.34;65.17
22651;BME280;11492;42.646;23.400;2023-05-11T02:32:43;95288.50;;;10.41;65.53
22651;BME280;11492;42.646;23.400;2023-05-11T02:35:24;95296.88;;;10.43;64.57
22651;BME280;11492;42.646;23.400;2023-05-11T02:37:53;95298.03;;;10.41;64.43
22651;BME280;11492;42.646;23.400;2023-05-11T02:40:24;95296.75;;;10.37;65.15
22651;BME280;11492;42.646;23.400;2023-05-11T02:42:55;95297.88;;;10.34;65.28
22651;BME280;11492;42.646;23.400;2023-05-11T02:45:22;95303.59;;;10.30;65.65
22651;BME280;11492;42.646;23.400;2023-05-11T02:47:53;95294.38;;;10.27;65.98
22651;BME280;11492;42.646;23.400;2023-05-11T02:50:21;95298.25;;;10.31;66.08
22651;BME280;11492;42.646;23.400;2023-05-11T02:52:50;95287.31;;;10.21;66.28
22651;BME280;11492;42.646;23.400;2023-05-11T02:55:19;95294.38;;;10.27;66.04
22651;BME280;11492;42.646;23.400;2023-05-11T02:57:45;95278.50;;;10.16;66.89
22651;BME280;11492;42.646;23.400;2023-05-11T03:00:11;95296.03;;;10.21;66.51
22651;BME280;11492;42.646;23.400;2023-05-11T03:02:37;95297.53;;;10.15;66.63
22651;BME280;11492;42.646;23.400;2023-05-11T03:05:02;95294.94;;;10.15;66.39
22651;BME280;11492;42.646;23.400;2023-05-11T03:07:30;95292.69;;;10.12;66.22
22651;BME280;11492;42.646;23.400;2023-05-11T03:09:56;95288.84;;;10.08;66.48
22651;BME280;11492;42.646;23.400;2023-05-11T03:12:22;95280.19;;;10.01;65.76
22651;BME280;11492;42.646;23.400;2023-05-11T03:14:48;95286.50;;;9.99;66.77
22651;BME280;11492;42.646;23.400;2023-05-11T03:17:14;95288.41;;;9.97;66.35
22651;BME280;11492;42.646;23.400;2023-05-11T03:19:41;95294.72;;;9.95;66.70
22651;BME280;11492;42.646;23.400;2023-05-11T03:22:07;95297.00;;;9.90;65.75
22651;BME280;11492;42.646;23.400;2023-05-11T03:24:33;95287.31;;;9.84;66.79
22651;BME280;11492;42.646;23.400;2023-05-11T03:27:00;95290.41;;;9.79;67.33
22651;BME280;11492;42.646;23.400;2023-05-11T03:29:26;95296.72;;;9.69;67.34
22651;BME280;11492;42.646;23.400;2023-05-11T03:31:53;95301.72;;;9.70;66.91
22651;BME280;11492;42.646;23.400;2023-05-11T03:34:19;95298.50;;;9.69;67.28
22651;BME280;11492;42.646;23.400;2023-05-11T03:36:47;95294.47;;;9.66;67.25
22651;BME280;11492;42.646;23.400;2023-05-11T03:39:14;95303.19;;;9.65;68.15
22651;BME280;11492;42.646;23.400;2023-05-11T03:41:41;95300.78;;;9.64;68.35
22651;BME280;11492;42.646;23.400;2023-05-11T03:44:09;95302.88;;;9.60;68.81
22651;BME280;11492;42.646;23.400;2023-05-11T03:46:37;95297.69;;;9.68;68.56
22651;BME280;11492;42.646;23.400;2023-05-11T03:49:05;95298.03;;;9.65;70.36
22651;BME280;11492;42.646;23.400;2023-05-11T03:51:31;95304.28;;;10.16;71.37
22651;BME280;11492;42.646;23.400;2023-05-11T03:53:58;95305.81;;;10.33;69.05
22651;BME280;11492;42.646;23.400;2023-05-11T03:56:24;95307.34;;;10.71;68.90
22651;BME280;11492;42.646;23.400;2023-05-11T03:58:49;95309.41;;;10.98;66.93
22651;BME280;11492;42.646;23.400;2023-05-11T04:01:15;95313.50;;;11.07;65.83
22651;BME280;11492;42.646;23.400;2023-05-11T04:03:47;95317.34;;;11.11;65.13
22651;BME280;11492;42.646;23.400;2023-05-11T04:06:15;95315.00;;;11.23;64.75
22651;BME280;11492;42.646;23.400;2023-05-11T04:08:41;95309.03;;;11.23;65.33
22651;BME280;11492;42.646;23.400;2023-05-11T04:11:06;95312.97;;;11.11;64.01
22651;BME280;11492;42.646;23.400;2023-05-11T04:13:32;95304.78;;;11.08;64.38
22651;BME280;11492;42.646;23.400;2023-05-11T04:15:57;95318.00;;;11.13;64.81
22651;BME280;11492;42.646;23.400;2023-05-11T04:18:23;95316.94;;;11.21;64.08
22651;BME280;11492;42.646;23.400;2023-05-11T04:20:48;95310.25;;;11.27;64.33
22651;BME280;11492;42.646;23.400;2023-05-11T04:23:14;95315.41;;;11.27;63.57
22651;BME280;11492;42.646;23.400;2023-05-11T04:25:39;95321.25;;;11.29;63.77
22651;BME280;11492;42.646;23.400;2023-05-11T04:28:05;95320.16;;;11.01;65.06
22651;BME280;11492;42.646;23.400;2023-05-11T04:30:30;95325.34;;;11.01;64.68
22651;BME280;11492;42.646;23.400;2023-05-11T04:32:56;95323.22;;;11.05;65.73
22651;BME280;11492;42.646;23.400;2023-05-11T04:35:21;95325.28;;;11.09;65.21
22651;BME280;11492;42.646;23.400;2023-05-11T04:37:47;95327.44;;;11.20;65.20
22651;BME280;11492;42.646;23.400;2023-05-11T04:40:13;95328.63;;;11.32;64.04
22651;BME280;11492;42.646;23.400;2023-05-11T04:42:38;95319.00;;;11.26;63.95
22651;BME280;11492;42.646;23.400;2023-05-11T04:45:04;95325.34;;;11.01;64.50
22651;BME280;11492;42.646;23.400;2023-05-11T04:47:30;95333.50;;;10.69;66.40
22651;BME280;11492;42.646;23.400;2023-05-11T04:49:56;95331.50;;;10.26;67.43
22651;BME280;11492;42.646;23.400;2023-05-11T04:52:24;95336.91;;;10.01;68.06
22651;BME280;11492;42.646;23.400;2023-05-11T04:54:50;95343.13;;;9.85;69.30
22651;BME280;11492;42.646;23.400;2023-05-11T04:57:15;95332.16;;;9.67;69.84
22651;BME280;11492;42.646;23.400;2023-05-11T04:59:40;95332.50;;;9.64;70.40
22651;BME280;11492;42.646;23.400;2023-05-11T05:02:06;95336.38;;;9.60;71.06
22651;BME280;11492;42.646;23.400;2023-05-11T05:04:31;95337.66;;;9.56;70.73
22651;BME280;11492;42.646;23.400;2023-05-11T05:06:57;95344.47;;;9.42;72.21
22651;BME280;11492;42.646;23.400;2023-05-11T05:09:22;95348.19;;;9.39;71.68
22651;BME280;11492;42.646;23.400;2023-05-11T05:11:48;95348.66;;;9.35;72.28
22651;BME280;11492;42.646;23.400;2023-05-11T05:14:13;95353.84;;;9.27;72.87
22651;BME280;11492;42.646;23.400;2023-05-11T05:16:39;95348.38;;;9.22;73.09
22651;BME280;11492;42.646;23.400;2023-05-11T05:19:04;95358.19;;;9.26;72.82
22651;BME280;11492;42.646;23.400;2023-05-11T05:21:29;95343.84;;;9.24;73.24
22651;BME280;11492;42.646;23.400;2023-05-11T05:23:56;95351.09;;;9.28;72.80
22651;BME280;11492;42.646;23.400;2023-05-11T05:26:21;95347.88;;;9.26;73.25
22651;BME280;11492;42.646;23.400;2023-05-11T05:28:47;95349.00;;;9.24;72.50
22651;BME280;11492;42.646;23.400;2023-05-11T05:31:12;95348.50;;;9.28;73.51
22651;BME280;11492;42.646;23.400;2023-05-11T05:33:38;95348.34;;;9.14;73.01
22651;BME280;11492;42.646;23.400;2023-05-11T05:36:03;95352.84;;;9.20;72.56
22651;BME280;11492;42.646;23.400;2023-05-11T05:38:29;95368.31;;;9.28;73.04
22651;BME280;11492;42.646;23.400;2023-05-11T05:40:54;95360.56;;;9.36;72.61
22651;BME280;11492;42.646;23.400;2023-05-11T05:43:20;95358.81;;;9.44;72.53
22651;BME280;11492;42.646;23.400;2023-05-11T05:45:45;95362.00;;;9.46;72.09
22651;BME280;11492;42.646;23.400;2023-05-11T05:48:10;95367.16;;;9.46;71.50
22651;BME280;11492;42.646;23.400;2023-05-11T05:50:36;95367.81;;;9.40;72.19
22651;BME280;11492;42.646;23.400;2023-05-11T05:53:02;95365.09;;;9.34;71.92
22651;BME280;11492;42.646;23.400;2023-05-11T05:55:27;95369.59;;;9.40;72.64
22651;BME280;11492;42.646;23.400;2023-05-11T05:57:52;95370.56;;;9.31;72.39
22651;BME280;11492;42.646;23.400;2023-05-11T06:00:18;95376.69;;;9.30;73.32
22651;BME280;11492;42.646;23.400;2023-05-11T06:02:44;95369.75;;;9.30;72.05
22651;BME280;11492;42.646;23.400;2023-05-11T06:05:09;95380.56;;;9.34;72.43
22651;BME280;11492;42.646;23.400;2023-05-11T06:07:35;95376.69;;;9.38;73.19
22651;BME280;11492;42.646;23.400;2023-05-11T06:10:00;95381.19;;;9.44;72.54
22651;BME280;11492;42.646;23.400;2023-05-11T06:12:26;95382.16;;;9.43;72.48
22651;BME280;11492;42.646;23.400;2023-05-11T06:14:51;95382.16;;;9.43;73.07
22651;BME280;11492;42.646;23.400;2023-05-11T06:17:16;95390.22;;;9.47;72.00
22651;BME280;11492;42.646;23.400;2023-05-11T06:19:42;95383.94;;;9.42;72.25
22651;BME280;11492;42.646;23.400;2023-05-11T06:22:08;95394.06;;;9.36;71.78
22651;BME280;11492;42.646;23.400;2023-05-11T06:24:33;95389.91;;;9.43;72.31
22651;BME280;11492;42.646;23.400;2023-05-11T06:26:59;95386.66;;;9.41;72.20
22651;BME280;11492;42.646;23.400;2023-05-11T06:29:24;95388.59;;;9.46;71.38
22651;BME280;11492;42.646;23.400;2023-05-11T06:31:50;95391.78;;;9.56;71.68
22651;BME280;11492;42.646;23.400;2023-05-11T06:34:19;95398.56;;;9.65;71.26
22651;BME280;11492;42.646;23.400;2023-05-11T06:36:46;95393.09;;;9.68;71.29
22651;BME280;11492;42.646;23.400;2023-05-11T06:39:11;95400.16;;;9.74;70.67
22651;BME280;11492;42.646;23.400;2023-05-11T06:41:37;95396.94;;;9.64;70.65
22651;BME280;11492;42.646;23.400;2023-05-11T06:44:03;95398.88;;;9.62;70.58
22651;BME280;11492;42.646;23.400;2023-05-11T06:46:29;95403.09;;;9.63;70.87
22651;BME280;11492;42.646;23.400;2023-05-11T06:48:54;95403.72;;;9.65;70.77
22651;BME280;11492;42.646;23.400;2023-05-11T06:51:20;95403.88;;;9.64;70.86
22651;BME280;11492;42.646;23.400;2023-05-11T06:53:46;95402.56;;;9.68;70.01
22651;BME280;11492;42.646;23.400;2023-05-11T06:56:12;95401.13;;;9.73;70.42
22651;BME280;11492;42.646;23.400;2023-05-11T06:58:37;95398.38;;;9.67;69.70
22651;BME280;11492;42.646;23.400;2023-05-11T07:01:03;95400.47;;;9.79;69.74
22651;BME280;11492;42.646;23.400;2023-05-11T07:03:32;95405.00;;;9.85;69.00
22651;BME280;11492;42.646;23.400;2023-05-11T07:05:58;95394.03;;;9.91;68.74
22651;BME280;11492;42.646;23.400;2023-05-11T07:08:23;95393.66;;;10.01;68.39
22651;BME280;11492;42.646;23.400;2023-05-11T07:10:49;95397.84;;;10.02;68.48
22651;BME280;11492;42.646;23.400;2023-05-11T07:13:14;95403.16;;;10.09;67.42
22651;BME280;11492;42.646;23.400;2023-05-11T07:15:39;95393.28;;;10.20;67.05
22651;BME280;11492;42.646;23.400;2023-05-11T07:18:05;95399.38;;;10.27;67.21
22651;BME280;11492;42.646;23.400;2023-05-11T07:20:31;95407.44;;;10.32;66.84
22651;BME280;11492;42.646;23.400;2023-05-11T07:22:57;95396.44;;;10.38;66.61
22651;BME280;11492;42.646;23.400;2023-05-11T07:25:25;95399.63;;;10.40;66.34
22651;BME280;11492;42.646;23.400;2023-05-11T07:27:51;95402.53;;;10.45;65.15
22651;BME280;11492;42.646;23.400;2023-05-11T07:30:16;95393.81;;;10.46;65.59
22651;BME280;11492;42.646;23.400;2023-05-11T07:32:42;95401.84;;;10.50;64.61
22651;BME280;11492;42.646;23.400;2023-05-11T07:35:08;95399.56;;;10.55;64.61
22651;BME280;11492;42.646;23.400;2023-05-11T07:37:33;95398.69;;;10.70;64.66
22651;BME280;11492;42.646;23.400;2023-05-11T07:39:58;95397.25;;;10.68;65.72
22651;BME280;11492;42.646;23.400;2023-05-11T07:42:24;95399.63;;;10.77;66.59
22651;BME280;11492;42.646;23.400;2023-05-11T07:44:49;95403.59;;;10.88;65.31
22651;BME280;11492;42.646;23.400;2023-05-11T07:47:15;95392.63;;;10.86;64.69
22651;BME280;11492;42.646;23.400;2023-05-11T07:49:41;95408.88;;;10.64;65.80
22651;BME280;11492;42.646;23.400;2023-05-11T07:52:07;95413.94;;;10.58;65.66
22651;BME280;11492;42.646;23.400;2023-05-11T07:54:32;95403.41;;;10.59;65.68
22651;BME280;11492;42.646;23.400;2023-05-11T07:56:58;95397.16;;;10.54;64.33
22651;BME280;11492;42.646;23.400;2023-05-11T07:59:23;95405.13;;;10.74;64.89
22651;BME280;11492;42.646;23.400;2023-05-11T08:01:49;95406.69;;;10.83;64.05
22651;BME280;11492;42.646;23.400;2023-05-11T08:04:14;95410.31;;;10.96;63.77
22651;BME280;11492;42.646;23.400;2023-05-11T08:06:39;95409.38;;;10.90;63.42
22651;BME280;11492;42.646;23.400;2023-05-11T08:09:05;95399.13;;;10.82;63.72
22651;BME280;11492;42.646;23.400;2023-05-11T08:11:30;95408.91;;;10.86;62.60
22651;BME280;11492;42.646;23.400;2023-05-11T08:13:56;95405.50;;;10.94;62.06
22651;BME280;11492;42.646;23.400;2023-05-11T08:16:21;95406.78;;;10.97;61.95
22651;BME280;11492;42.646;23.400;2023-05-11T08:18:47;95406.88;;;11.04;62.07
22651;BME280;11492;42.646;23.400;2023-05-11T08:21:13;95411.41;;;11.02;61.25
22651;BME280;11492;42.646;23.400;2023-05-11T08:23:38;95415.53;;;11.11;60.89
22651;BME280;11492;42.646;23.400;2023-05-11T08:26:04;95405.88;;;11.27;62.50
22651;BME280;11492;42.646;23.400;2023-05-11T08:28:29;95403.34;;;11.49;62.77
22651;BME280;11492;42.646;23.400;2023-05-11T08:30:55;95406.13;;;11.62;61.86
22651;BME280;11492;42.646;23.400;2023-05-11T08:33:21;95410.88;;;11.72;61.60
22651;BME280;11492;42.646;23.400;2023-05-11T08:35:47;95399.13;;;11.98;61.23
22651;BME280;11492;42.646;23.400;2023-05-11T08:38:13;95390.84;;;12.17;59.62
22651;BME280;11492;42.646;23.400;2023-05-11T08:40:39;95395.84;;;12.33;59.10
22651;BME280;11492;42.646;23.400;2023-05-11T08:43:14;95410.38;;;12.48;57.97
22651;BME280;11492;42.646;23.400;2023-05-11T08:45:44;95413.44;;;12.37;58.86
22651;BME280;11492;42.646;23.400;2023-05-11T08:48:17;95412.72;;;12.29;58.78
22651;BME280;11492;42.646;23.400;2023-05-11T08:50:45;95408.50;;;12.28;58.90
22651;BME280;11492;42.646;23.400;2023-05-11T08:53:11;95397.44;;;12.05;58.83
22651;BME280;11492;42.646;23.400;2023-05-11T08:55:37;95405.19;;;12.05;59.97
22651;BME280;11492;42.646;23.400;2023-05-11T08:58:05;95399.41;;;12.03;60.63
22651;BME280;11492;42.646;23.400;2023-05-11T09:00:32;95393.69;;;11.94;60.96
22651;BME280;11492;42.646;23.400;2023-05-11T09:02:58;95394.03;;;11.76;61.60
22651;BME280;11492;42.646;23.400;2023-05-11T09:05:25;95400.97;;;11.76;61.91
22651;BME280;11492;42.646;23.400;2023-05-11T09:07:53;95387.50;;;11.66;62.21
22651;BME280;11492;42.646;23.400;2023-05-11T09:10:20;95393.94;;;11.70;61.70
22651;BME280;11492;42.646;23.400;2023-05-11T09:12:45;95390.38;;;11.71;62.76
22651;BME280;11492;42.646;23.400;2023-05-11T09:15:11;95384.91;;;11.66;62.86
22651;BME280;11492;42.646;23.400;2023-05-11T09:17:37;95381.34;;;11.67;61.81
22651;BME280;11492;42.646;23.400;2023-05-11T09:20:04;95382.59;;;11.71;62.13
22651;BME280;11492;42.646;23.400;2023-05-11T09:22:34;95390.69;;;11.68;62.46
22651;BME280;11492;42.646;23.400;2023-05-11T09:25:05;95391.59;;;11.61;63.49
22651;BME280;11492;42.646;23.400;2023-05-11T09:27:31;95389.44;;;11.50;63.51
22651;BME280;11492;42.646;23.400;2023-05-11T09:30:29;95393.25;;;11.54;63.62
22651;BME280;11492;42.646;23.400;2023-05-11T09:32:59;95396.84;;;11.67;64.02
22651;BME280;11492;42.646;23.400;2023-05-11T09:35:28;95396.88;;;11.81;62.84
22651;BME280;11492;42.646;23.400;2023-05-11T09:40:23;95394.19;;;11.61;62.38
22651;BME280;11492;42.646;23.400;2023-05-11T09:42:49;95400.19;;;11.53;62.83
22651;BME280;11492;42.646;23.400;2023-05-11T09:45:36;95395.84;;;11.32;64.04
22651;BME280;11492;42.646;23.400;2023-05-11T09:48:03;95402.47;;;11.34;63.47
22651;BME280;11492;42.646;23.400;2023-05-11T09:50:33;95395.16;;;11.38;63.96
22651;BME280;11492;42.646;23.400;2023-05-11T09:52:59;95383.00;;;11.24;63.30
22651;BME280;11492;42.646;23.400;2023-05-11T09:55:25;95379.13;;;11.20;64.22
22651;BME280;11492;42.646;23.400;2023-05-11T09:57:55;95373.97;;;11.20;63.75
22651;BME280;11492;42.646;23.400;2023-05-11T10:00:21;95380.47;;;11.38;64.74
22651;BME280;11492;42.646;23.400;2023-05-11T10:03:07;95370.88;;;11.24;64.25
22651;BME280;11492;42.646;23.400;2023-05-11T10:05:34;95368.47;;;11.45;63.89
22651;BME280;11492;42.646;23.400;2023-05-11T10:08:03;95370.44;;;11.57;62.85
22651;BME280;11492;42.646;23.400;2023-05-11T10:10:33;95374.19;;;11.69;62.18
22651;BME280;11492;42.646;23.400;2023-05-11T10:13:00;95353.50;;;11.69;62.80
22651;BME280;11492;42.646;23.400;2023-05-11T10:15:27;95353.72;;;11.96;62.20
22651;BME280;11492;42.646;23.400;2023-05-11T10:17:55;95345.78;;;12.12;62.64
22651;BME280;11492;42.646;23.400;2023-05-11T10:20:21;95362.72;;;12.43;61.25
22651;BME280;11492;42.646;23.400;2023-05-11T10:22:50;95357.25;;;12.38;59.28
22651;BME280;11492;42.646;23.400;2023-05-11T10:25:17;95358.34;;;12.29;60.19
22651;BME280;11492;42.646;23.400;2023-05-11T10:27:42;95349.50;;;12.23;61.10
22651;BME280;11492;42.646;23.400;2023-05-11T10:30:09;95342.69;;;12.37;60.00
22651;BME280;11492;42.646;23.400;2023-05-11T10:32:36;95344.56;;;12.43;59.96
22651;BME280;11492;42.646;23.400;2023-05-11T10:35:03;95342.38;;;12.60;59.93
22651;BME280;11492;42.646;23.400;2023-05-11T10:37:31;95334.25;;;12.63;58.96
22651;BME280;11492;42.646;23.400;2023-05-11T10:39:56;95326.78;;;12.89;58.77
22651;BME280;11492;42.646;23.400;2023-05-11T11:01:41;95323.56;;;13.07;57.77
22651;BME280;11492;42.646;23.400;2023-05-11T11:04:12;95320.06;;;13.15;58.23
22651;BME280;11492;42.646;23.400;2023-05-11T11:06:42;95331.81;;;13.38;58.26
22651;BME280;11492;42.646;23.400;2023-05-11T11:09:15;95320.34;;;13.26;57.03
22651;BME280;11492;42.646;23.400;2023-05-11T11:11:44;95322.94;;;13.26;57.78
22651;BME280;11492;42.646;23.400;2023-05-11T11:14:15;95329.59;;;13.35;57.86
22651;BME280;11492;42.646;23.400;2023-05-11T11:19:41;95339.13;;;13.07;58.00
22651;BME280;11492;42.646;23.400;2023-05-11T11:25:08;95322.75;;;12.86;58.09
22651;BME280;11492;42.646;23.400;2023-05-11T11:30:25;95316.81;;;13.13;57.79
22651;BME280;11492;42.646;23.400;2023-05-11T11:32:55;95317.81;;;13.12;58.10
22651;BME280;11492;42.646;23.400;2023-05-11T11:38:19;95308.56;;;13.77;56.69
22651;BME280;11492;42.646;23.400;2023-05-11T11:40:47;95316.41;;;13.90;55.75
22651;BME280;11492;42.646;23.400;2023-05-11T11:43:22;95313.16;;;14.02;55.98
22651;BME280;11492;42.646;23.400;2023-05-11T11:45:59;95320.09;;;14.02;55.37
22651;BME280;11492;42.646;23.400;2023-05-11T11:51:03;95295.13;;;14.41;54.25
22651;BME280;11492;42.646;23.400;2023-05-11T12:01:13;95305.97;;;14.57;53.97
22651;BME280;11492;42.646;23.400;2023-05-11T12:03:39;95307.59;;;14.64;53.45
22651;BME280;11492;42.646;23.400;2023-05-11T12:06:09;95316.22;;;14.77;53.12
22651;BME280;11492;42.646;23.400;2023-05-11T12:08:36;95313.78;;;14.63;52.53
22651;BME280;11492;42.646;23.400;2023-05-11T12:11:03;95300.69;;;14.38;53.99
22651;BME280;11492;42.646;23.400;2023-05-11T12:13:29;95303.84;;;14.21;54.46
22651;BME280;11492;42.646;23.400;2023-05-11T12:16:15;95298.31;;;13.96;55.67
22651;BME280;11492;42.646;23.400;2023-05-11T12:18:42;95300.91;;;13.96;55.57
22651;BME280;11492;42.646;23.400;2023-05-11T12:21:23;95306.91;;;13.70;55.87
22651;BME280;11492;42.646;23.400;2023-05-11T12:23:58;95299.88;;;13.64;56.67
22651;BME280;11492;42.646;23.400;2023-05-11T12:26:25;95288.44;;;13.86;56.06
22651;BME280;11492;42.646;23.400;2023-05-11T12:29:05;95293.75;;;13.98;54.91
22651;BME280;11492;42.646;23.400;2023-05-11T12:31:35;95291.19;;;13.78;55.52
22651;BME280;11492;42.646;23.400;2023-05-11T12:34:01;95292.31;;;13.69;55.64
22651;BME280;11492;42.646;23.400;2023-05-11T12:36:26;95277.81;;;13.47;56.97
22651;BME280;11492;42.646;23.400;2023-05-11T12:38:52;95280.66;;;13.52;57.04
22651;BME280;11492;42.646;23.400;2023-05-11T12:41:18;95288.22;;;13.54;56.47
22651;BME280;11492;42.646;23.400;2023-05-11T12:43:50;95269.88;;;13.55;56.21
22651;BME280;11492;42.646;23.400;2023-05-11T12:46:17;95267.03;;;13.50;56.28
22651;BME280;11492;42.646;23.400;2023-05-11T12:48:44;95269.03;;;13.48;56.54
22651;BME280;11492;42.646;23.400;2023-05-11T12:51:10;95267.09;;;13.30;57.23
22651;BME280;11492;42.646;23.400;2023-05-11T12:53:37;95266.00;;;13.45;57.56
22651;BME280;11492;42.646;23.400;2023-05-11T12:56:03;95257.25;;;13.46;57.55
22651;BME280;11492;42.646;23.400;2023-05-11T12:58:39;95245.38;;;13.31;57.64
22651;BME280;11492;42.646;23.400;2023-05-11T13:01:06;95246.09;;;13.46;58.30
22651;BME280;11492;42.646;23.400;2023-05-11T13:03:34;95250.22;;;13.40;57.52
22651;BME280;11492;42.646;23.400;2023-05-11T13:06:18;95234.38;;;13.02;57.88
22651;BME280;11492;42.646;23.400;2023-05-11T13:08:45;95247.06;;;13.18;58.25
22651;BME280;11492;42.646;23.400;2023-05-11T13:11:18;95233.34;;;13.23;58.91
22651;BME280;11492;42.646;23.400;2023-05-11T13:13:46;95250.59;;;13.37;57.65
22651;BME280;11492;42.646;23.400;2023-05-11T13:16:24;95242.72;;;13.24;57.71
22651;BME280;11492;42.646;23.400;2023-05-11T13:18:57;95237.31;;;13.20;57.60
22651;BME280;11492;42.646;23.400;2023-05-11T13:21:24;95225.53;;;13.17;57.56
22651;BME280;11492;42.646;23.400;2023-05-11T13:23:50;95236.56;;;13.25;57.92
22651;BME280;11492;42.646;23.400;2023-05-11T13:26:21;95230.13;;;13.48;56.97
22651;BME280;11492;42.646;23.400;2023-05-11T13:28:48;95235.72;;;13.46;56.87
22651;BME280;11492;42.646;23.400;2023-05-11T13:31:13;95243.84;;;13.43;57.41
22651;BME280;11492;42.646;23.400;2023-05-11T13:33:39;95245.13;;;13.53;57.17
22651;BME280;11492;42.646;23.400;2023-05-11T13:36:05;95250.13;;;13.54;56.38
22651;BME280;11492;42.646;23.400;2023-05-11T13:38:30;95241.06;;;13.44;56.55
22651;BME280;11492;42.646;23.400;2023-05-11T13:40:56;95234.09;;;13.45;56.96
22651;BME280;11492;42.646;23.400;2023-05-11T13:43:21;95229.59;;;13.59;56.30
22651;BME280;11492;42.646;23.400;2023-05-11T13:45:46;95236.91;;;13.49;56.93
22651;BME280;11492;42.646;23.400;2023-05-11T13:48:12;95241.34;;;13.55;56.71